Knox, IN

11:37 PM CDT on August 21, 2017 (GMT -0500)
Starke County

Weather History for KOXI - April, 2013

Change the Weather History Date:

Thursday, April 18, 2013

  Actual Average (KRCR) Record (KRCR)
Temperature  
Mean Temperature 58 °F -  
Max Temperature 77 °F 61 °F 82 °F (2016)
Min Temperature 46 °F 37 °F 42 °F (2014)
Degree Days  
Heating Degree Days 6    
Growing Degree Days 8 (Base 50)    
Moisture  
Dew Point 58 °F    
Average Humidity 96    
Maximum Humidity 99    
Minimum Humidity 82    
Precipitation  
Precipitation 0.00 in - - ()
Sea Level Pressure  
Sea Level Pressure 29.64 in    
Wind  
Wind Speed 15 mph (South)    
Max Wind Speed 32 mph    
Max Gust Speed 43 mph    
Visibility 8 miles    
Events      
Averages and records for this station are not official NWS values.
T = Trace of Precipitation, MM = Missing Value Source: NWS Daily Summary

Daily Weather History Graph

Daily Weather History Graph

Search for Another Location

Airport or City:

Trip Planner

Search our weather history database for the weather conditions in past years. The results will help you decide how hot, cold, wet, or windy it might be!

Date:

Astronomy

Apr. 18, 2013 Rise Set
Actual Time 6:02 AM CDT 7:30 PM CDT
Civil Twilight 5:33 AM CDT 7:59 PM CDT
Nautical Twilight 4:58 AM CDT 8:34 PM CDT
Astronomical Twilight 4:21 AM CDT 9:11 PM CDT
Moon 12:12 PM CDT (4/18) 1:45 AM CDT (4/18)
Length of Visible Light 14h 26m
Length of Day
13h 28m
First Quarter, 52% of the Moon is Illuminated
Apr 18
First Quarter
Apr 25
Full
May 2
Last Quarter
May 9
New
May 17
First Quarter

Hourly Weather History & Observations

Time (CDT) Temp. Dew Point Humidity Pressure Visibility Wind Dir Wind Speed Gust Speed Precip Events Conditions
12:15 AM 48.9 °F 48.4 °F 98% 29.82 in 7.0 mi ESE 12.7 mph - N/A   Mostly Cloudy
12:35 AM 48.7 °F 48.4 °F 99% 29.82 in 7.0 mi ESE 11.5 mph - N/A   Overcast
12:55 AM 48.9 °F 48.2 °F 97% 29.80 in 7.0 mi SE 17.3 mph - N/A   Overcast
1:15 AM 49.5 °F 48.6 °F 97% 29.77 in 7.0 mi SE 18.4 mph 25.3 mph N/A   Mostly Cloudy
1:35 AM 50.0 °F 49.1 °F 97% 29.75 in 5.0 mi SE 17.3 mph 27.6 mph N/A   Scattered Clouds
1:55 AM 50.5 °F 49.8 °F 97% 29.73 in 5.0 mi SE 19.6 mph 25.3 mph N/A   Mostly Cloudy
2:15 AM 51.3 °F 50.5 °F 97% 29.73 in 5.0 mi SE 13.8 mph - N/A   Mostly Cloudy
2:35 AM 52.3 °F 51.6 °F 97% 29.72 in 7.0 mi SE 15.0 mph 23.0 mph N/A   Scattered Clouds
2:55 AM 53.4 °F 52.3 °F 96% 29.71 in 7.0 mi SSE 17.3 mph 24.2 mph N/A   Scattered Clouds
3:15 AM 54.5 °F 53.1 °F 95% 29.74 in 7.0 mi WSW 4.6 mph 10.4 mph N/A   Mostly Cloudy
3:35 AM 53.8 °F 52.7 °F 96% 29.72 in 5.0 mi SSE 9.2 mph - N/A   Overcast
3:55 AM 55.4 °F 54.3 °F 96% 29.70 in 7.0 mi SE 10.4 mph - N/A   Mostly Cloudy
4:15 AM 55.6 °F 54.5 °F 96% 29.69 in 7.0 mi SE 13.8 mph - N/A   Scattered Clouds
4:35 AM 56.1 °F 55.0 °F 96% 29.68 in 7.0 mi SSE 12.7 mph - N/A   Scattered Clouds
4:55 AM 56.5 °F 55.6 °F 97% 29.67 in 7.0 mi SSE 13.8 mph - N/A   Scattered Clouds
5:15 AM 57.2 °F 56.3 °F 97% 29.65 in 7.0 mi SSE 18.4 mph - N/A   Clear
5:35 AM 58.8 °F 57.6 °F 96% 29.64 in 10.0 mi SSE 15.0 mph - N/A   Clear
5:55 AM 59.7 °F 58.3 °F 95% 29.65 in 10.0 mi SSE 13.8 mph - N/A   Clear
6:15 AM 60.1 °F 58.8 °F 96% 29.64 in 10.0 mi SSE 13.8 mph - N/A   Clear
6:35 AM 61.5 °F 59.9 °F 94% 29.64 in 10.0 mi South 13.8 mph - N/A   Scattered Clouds
6:55 AM 63.1 °F 61.0 °F 93% 29.64 in 10.0 mi South 15.0 mph - N/A   Mostly Cloudy
7:15 AM 64.2 °F 61.9 °F 92% 29.62 in 10.0 mi South 16.1 mph 23.0 mph N/A   Scattered Clouds
7:35 AM 65.7 °F 62.8 °F 90% 29.60 in 10.0 mi South 17.3 mph 24.2 mph N/A   Clear
7:55 AM 66.7 °F 63.3 °F 89% 29.59 in 10.0 mi South 21.9 mph 26.5 mph N/A   Clear
8:15 AM 67.6 °F 64.0 °F 88% 29.59 in 10.0 mi South 18.4 mph 23.0 mph N/A   Scattered Clouds
8:55 AM 70.5 °F 65.5 °F 84% 29.58 in 10.0 mi South 23.0 mph 34.5 mph N/A   Mostly Cloudy
9:15 AM 70.9 °F 65.3 °F 82% 29.56 in 10.0 mi South 31.1 mph 42.6 mph N/A   Overcast
9:55 AM 66.6 °F 65.1 °F 95% 29.59 in 10.0 mi WSW 32.2 mph 40.3 mph N/A   Overcast
10:15 AM 64.2 °F 63.7 °F 98% 29.60 in 10.0 mi SW 18.4 mph 24.2 mph N/A   Overcast
10:35 AM 63.9 °F 63.1 °F 97% 29.62 in 10.0 mi SW 21.9 mph 27.6 mph N/A   Overcast
10:55 AM 63.9 °F 62.2 °F 94% 29.63 in 10.0 mi SW 17.3 mph 24.2 mph N/A   Overcast
11:15 AM 63.3 °F 61.9 °F 95% 29.63 in 10.0 mi SW 15.0 mph 25.3 mph N/A   Overcast
11:35 AM 63.1 °F 61.9 °F 96% 29.63 in 10.0 mi SSW 12.7 mph 21.9 mph N/A   Overcast
11:55 AM 62.8 °F 61.7 °F 96% 29.65 in 5.0 mi SSW 17.3 mph - N/A   Overcast
12:15 PM 62.6 °F 61.7 °F 97% 29.63 in 7.0 mi SSW 13.8 mph 20.7 mph N/A   Overcast
12:35 PM 62.8 °F 61.7 °F 96% 29.64 in 10.0 mi SSW 16.1 mph 21.9 mph N/A   Overcast
12:55 PM 62.8 °F 61.7 °F 96% 29.64 in 10.0 mi SSW 17.3 mph 23.0 mph N/A   Overcast
1:15 PM 62.6 °F 61.7 °F 97% 29.65 in 5.0 mi SSW 15.0 mph 18.4 mph N/A   Overcast
1:35 PM 62.6 °F 61.7 °F 97% 29.66 in 10.0 mi SSW 17.3 mph 21.9 mph N/A   Overcast
1:55 PM 62.6 °F 61.7 °F 97% 29.65 in 7.0 mi South 17.3 mph - N/A   Overcast
2:15 PM 62.6 °F 61.7 °F 97% 29.66 in 5.0 mi SSW 12.7 mph - N/A   Overcast
2:35 PM 62.6 °F 61.9 °F 97% 29.64 in 7.0 mi SSW 15.0 mph 19.6 mph N/A   Overcast
2:55 PM 62.8 °F 61.9 °F 97% 29.65 in 7.0 mi South 12.7 mph 19.6 mph N/A   Overcast
3:15 PM 62.4 °F 61.5 °F 97% 29.64 in 10.0 mi South 15.0 mph - N/A   Overcast
3:35 PM 62.1 °F 61.3 °F 97% 29.64 in 4.0 mi South 13.8 mph - N/A   Overcast
3:55 PM 61.9 °F 61.2 °F 97% 29.66 in 10.0 mi South 15.0 mph - N/A   Overcast
4:15 PM 61.5 °F 60.6 °F 97% 29.64 in 7.0 mi SSW 10.4 mph - N/A   Overcast
4:35 PM 61.0 °F 60.4 °F 98% 29.63 in 7.0 mi South 11.5 mph - N/A   Overcast
4:55 PM 60.6 °F 59.9 °F 97% 29.63 in 10.0 mi South 13.8 mph - N/A   Overcast
5:15 PM 60.3 °F 59.9 °F 99% 29.62 in 10.0 mi SSE 11.5 mph - N/A   Overcast
5:35 PM 60.3 °F 59.9 °F 99% 29.62 in 10.0 mi South 9.2 mph - N/A   Overcast
5:55 PM 60.3 °F 59.9 °F 99% 29.63 in 7.0 mi South 12.7 mph - N/A   Overcast
6:15 PM 60.3 °F 59.9 °F 99% 29.61 in 7.0 mi SSE 13.8 mph - N/A   Overcast
6:35 PM 60.1 °F 59.7 °F 99% 29.56 in 7.0 mi SE 15.0 mph - N/A   Overcast
6:55 PM 59.9 °F 59.4 °F 98% 29.56 in 10.0 mi SSE 13.8 mph - N/A   Overcast
7:15 PM 59.9 °F 59.4 °F 98% 29.53 in 7.0 mi SE 19.6 mph - N/A   Overcast
7:35 PM 59.7 °F 59.4 °F 99% 29.55 in 5.0 mi SSE 20.7 mph 24.2 mph N/A   Overcast
7:55 PM 59.5 °F 59.2 °F 99% 29.53 in 10.0 mi SE 18.4 mph - N/A   Overcast
8:15 PM 59.4 °F 59.0 °F 99% 29.55 in 7.0 mi SSE 19.6 mph - N/A   Overcast
8:35 PM 59.4 °F 59.0 °F 99% 29.55 in 7.0 mi SSE 17.3 mph 26.5 mph N/A   Overcast
10:15 PM 54.7 °F 53.8 °F 97% 29.55 in 5.0 mi WSW 16.1 mph 19.6 mph N/A   Overcast
10:35 PM 53.1 °F 52.3 °F 97% 29.54 in 7.0 mi WSW 19.6 mph 24.2 mph N/A   Overcast
10:55 PM 50.9 °F 50.0 °F 97% 29.56 in 7.0 mi West 18.4 mph 31.1 mph N/A   Overcast
11:15 PM 48.9 °F 47.8 °F 96% 29.58 in 5.0 mi WSW 16.1 mph 26.5 mph N/A   Overcast
11:35 PM 47.8 °F 46.8 °F 96% 29.56 in 5.0 mi WSW 13.8 mph - N/A   Overcast
11:55 PM 46.8 °F 45.7 °F 96% 29.54 in 7.0 mi WSW 15.0 mph 21.9 mph N/A   Overcast